sensor_id;sensor_type;location;lat;lon;timestamp;pressure;altitude;pressure_sealevel;temperature;humidity
23118;BME280;11728;50.624;6.014;2023-05-07T00:02:06;98265.91;;;15.60;86.66
23118;BME280;11728;50.624;6.014;2023-05-07T00:07:28;98259.63;;;15.63;86.52
23118;BME280;11728;50.624;6.014;2023-05-07T00:12:48;98259.81;;;15.58;86.65
23118;BME280;11728;50.624;6.014;2023-05-07T00:18:09;98259.84;;;15.57;86.54
23118;BME280;11728;50.624;6.014;2023-05-07T00:23:30;98262.47;;;15.58;86.33
23118;BME280;11728;50.624;6.014;2023-05-07T00:28:51;98260.47;;;15.63;86.00
23118;BME280;11728;50.624;6.014;2023-05-07T00:34:11;98255.16;;;15.63;85.82
23118;BME280;11728;50.624;6.014;2023-05-07T00:39:33;98259.28;;;15.70;85.70
23118;BME280;11728;50.624;6.014;2023-05-07T00:44:54;98254.75;;;15.72;85.34
23118;BME280;11728;50.624;6.014;2023-05-07T00:50:15;98259.16;;;15.73;85.16
23118;BME280;11728;50.624;6.014;2023-05-07T00:55:37;98250.75;;;15.82;84.62
23118;BME280;11728;50.624;6.014;2023-05-07T01:00:59;98247.41;;;15.77;84.75
23118;BME280;11728;50.624;6.014;2023-05-07T01:06:21;98243.72;;;15.81;84.64
23118;BME280;11728;50.624;6.014;2023-05-07T01:11:44;98240.97;;;15.83;84.58
23118;BME280;11728;50.624;6.014;2023-05-07T01:17:04;98238.38;;;15.81;84.58
23118;BME280;11728;50.624;6.014;2023-05-07T01:22:36;98230.50;;;15.78;85.12
23118;BME280;11728;50.624;6.014;2023-05-07T01:27:57;98220.78;;;15.77;84.92
23118;BME280;11728;50.624;6.014;2023-05-07T01:33:21;98219.22;;;15.73;84.79
23118;BME280;11728;50.624;6.014;2023-05-07T01:38:43;98224.78;;;15.67;85.36
23118;BME280;11728;50.624;6.014;2023-05-07T01:44:05;98221.47;;;15.62;86.02
23118;BME280;11728;50.624;6.014;2023-05-07T01:49:26;98215.41;;;15.59;86.36
23118;BME280;11728;50.624;6.014;2023-05-07T01:54:47;98206.41;;;15.61;86.06
23118;BME280;11728;50.624;6.014;2023-05-07T02:00:08;98217.88;;;15.63;85.69
23118;BME280;11728;50.624;6.014;2023-05-07T02:05:29;98209.63;;;15.69;84.93
23118;BME280;11728;50.624;6.014;2023-05-07T02:10:50;98217.31;;;15.75;84.17
23118;BME280;11728;50.624;6.014;2023-05-07T02:16:12;98221.44;;;15.82;83.62
23118;BME280;11728;50.624;6.014;2023-05-07T02:21:34;98230.56;;;15.97;82.54
23118;BME280;11728;50.624;6.014;2023-05-07T02:26:55;98228.22;;;16.09;81.81
23118;BME280;11728;50.624;6.014;2023-05-07T02:32:16;98233.38;;;16.12;81.43
23118;BME280;11728;50.624;6.014;2023-05-07T02:37:36;98231.81;;;16.08;81.78
23118;BME280;11728;50.624;6.014;2023-05-07T02:42:57;98227.50;;;16.06;82.00
23118;BME280;11728;50.624;6.014;2023-05-07T02:48:18;98225.69;;;16.06;82.02
23118;BME280;11728;50.624;6.014;2023-05-07T02:53:39;98222.44;;;16.00;82.49
23118;BME280;11728;50.624;6.014;2023-05-07T02:59:00;98231.50;;;15.96;82.77
23118;BME280;11728;50.624;6.014;2023-05-07T03:04:20;98221.44;;;15.82;83.12
23118;BME280;11728;50.624;6.014;2023-05-07T03:09:41;98214.75;;;15.74;83.45
23118;BME280;11728;50.624;6.014;2023-05-07T03:15:02;98217.75;;;15.66;84.04
23118;BME280;11728;50.624;6.014;2023-05-07T03:20:23;98217.88;;;15.63;84.26
23118;BME280;11728;50.624;6.014;2023-05-07T03:25:43;98215.13;;;15.65;84.05
23118;BME280;11728;50.624;6.014;2023-05-07T03:31:04;98214.13;;;15.67;84.09
23118;BME280;11728;50.624;6.014;2023-05-07T03:36:25;98212.44;;;15.66;84.23
23118;BME280;11728;50.624;6.014;2023-05-07T03:41:47;98205.22;;;15.68;84.29
23118;BME280;11728;50.624;6.014;2023-05-07T03:47:08;98210.41;;;15.71;84.19
23118;BME280;11728;50.624;6.014;2023-05-07T03:52:30;98215.00;;;15.68;84.39
23118;BME280;11728;50.624;6.014;2023-05-07T03:57:51;98214.13;;;15.67;84.70
23118;BME280;11728;50.624;6.014;2023-05-07T04:03:12;98219.41;;;15.69;84.92
23118;BME280;11728;50.624;6.014;2023-05-07T04:08:32;98215.81;;;15.70;84.67
23118;BME280;11728;50.624;6.014;2023-05-07T04:13:53;98216.56;;;15.73;84.69
23118;BME280;11728;50.624;6.014;2023-05-07T04:19:14;98210.41;;;15.71;84.50
23118;BME280;11728;50.624;6.014;2023-05-07T04:24:34;98208.22;;;15.61;84.83
23118;BME280;11728;50.624;6.014;2023-05-07T04:29:55;98201.84;;;15.45;85.33
23118;BME280;11728;50.624;6.014;2023-05-07T04:35:16;98200.50;;;15.35;85.89
23118;BME280;11728;50.624;6.014;2023-05-07T04:40:37;98201.91;;;15.43;85.74
23118;BME280;11728;50.624;6.014;2023-05-07T04:45:59;98198.03;;;15.70;84.99
23118;BME280;11728;50.624;6.014;2023-05-07T04:51:20;98209.16;;;15.98;84.11
23118;BME280;11728;50.624;6.014;2023-05-07T04:56:41;98205.00;;;16.11;83.46
23118;BME280;11728;50.624;6.014;2023-05-07T05:02:02;98214.25;;;16.22;83.30
23118;BME280;11728;50.624;6.014;2023-05-07T05:07:24;98223.25;;;16.40;82.44
23118;BME280;11728;50.624;6.014;2023-05-07T05:12:45;98225.97;;;16.57;81.29
23118;BME280;11728;50.624;6.014;2023-05-07T05:18:06;98228.78;;;16.72;80.56
23118;BME280;11728;50.624;6.014;2023-05-07T05:23:26;98233.72;;;16.80;80.78
23118;BME280;11728;50.624;6.014;2023-05-07T05:28:47;98247.03;;;16.98;80.13
23118;BME280;11728;50.624;6.014;2023-05-07T05:34:08;98250.84;;;17.11;80.26
23118;BME280;11728;50.624;6.014;2023-05-07T05:39:29;98253.06;;;17.20;80.55
23118;BME280;11728;50.624;6.014;2023-05-07T05:44:49;98255.88;;;17.35;80.40
23118;BME280;11728;50.624;6.014;2023-05-07T05:50:10;98257.69;;;17.52;79.61
23118;BME280;11728;50.624;6.014;2023-05-07T05:55:31;98256.22;;;17.63;79.93
23118;BME280;11728;50.624;6.014;2023-05-07T06:00:52;98257.47;;;17.73;81.11
23118;BME280;11728;50.624;6.014;2023-05-07T06:06:13;98253.84;;;17.74;81.86
23118;BME280;11728;50.624;6.014;2023-05-07T06:11:35;98259.88;;;17.77;82.87
23118;BME280;11728;50.624;6.014;2023-05-07T06:16:56;98256.19;;;17.97;83.06
23118;BME280;11728;50.624;6.014;2023-05-07T06:22:17;98259.59;;;18.33;82.53
23118;BME280;11728;50.624;6.014;2023-05-07T06:27:37;98267.34;;;18.54;81.53
23118;BME280;11728;50.624;6.014;2023-05-07T06:33:00;98270.03;;;18.69;80.39
23118;BME280;11728;50.624;6.014;2023-05-07T06:38:20;98275.41;;;19.00;78.36
23118;BME280;11728;50.624;6.014;2023-05-07T06:43:41;98274.31;;;19.35;77.11
23118;BME280;11728;50.624;6.014;2023-05-07T06:49:02;98274.16;;;19.67;75.90
23118;BME280;11728;50.624;6.014;2023-05-07T06:54:23;98280.41;;;19.97;74.90
23118;BME280;11728;50.624;6.014;2023-05-07T06:59:43;98273.63;;;20.19;73.85
23118;BME280;11728;50.624;6.014;2023-05-07T07:05:05;98273.66;;;20.33;72.90
23118;BME280;11728;50.624;6.014;2023-05-07T07:10:26;98281.53;;;20.50;71.30
23118;BME280;11728;50.624;6.014;2023-05-07T07:15:46;98282.31;;;20.66;69.44
23118;BME280;11728;50.624;6.014;2023-05-07T07:21:07;98272.63;;;20.91;67.65
23118;BME280;11728;50.624;6.014;2023-05-07T07:26:28;98273.06;;;20.98;66.38
23118;BME280;11728;50.624;6.014;2023-05-07T07:31:49;98277.38;;;21.14;65.36
23118;BME280;11728;50.624;6.014;2023-05-07T07:37:10;98267.25;;;21.32;65.28
23118;BME280;11728;50.624;6.014;2023-05-07T07:42:31;98274.81;;;21.66;64.54
23118;BME280;11728;50.624;6.014;2023-05-07T07:47:52;98281.28;;;22.02;63.21
23118;BME280;11728;50.624;6.014;2023-05-07T07:53:13;98280.63;;;22.37;61.42
23118;BME280;11728;50.624;6.014;2023-05-07T07:58:33;98281.75;;;23.08;59.59
23118;BME280;11728;50.624;6.014;2023-05-07T08:03:56;98282.72;;;24.47;55.85
23118;BME280;11728;50.624;6.014;2023-05-07T08:09:19;98276.13;;;25.27;54.15
23118;BME280;11728;50.624;6.014;2023-05-07T08:14:40;98278.75;;;25.82;52.20
23118;BME280;11728;50.624;6.014;2023-05-07T08:20:00;98273.22;;;26.55;50.26
23118;BME280;11728;50.624;6.014;2023-05-07T08:25:21;98272.88;;;26.69;49.05
23118;BME280;11728;50.624;6.014;2023-05-07T08:30:42;98272.72;;;26.91;47.72
23118;BME280;11728;50.624;6.014;2023-05-07T08:36:03;98270.56;;;27.15;46.54
23118;BME280;11728;50.624;6.014;2023-05-07T08:41:24;98275.94;;;26.55;46.11
23118;BME280;11728;50.624;6.014;2023-05-07T08:46:45;98273.22;;;26.76;45.40
23118;BME280;11728;50.624;6.014;2023-05-07T08:52:08;98274.25;;;26.84;44.55
23118;BME280;11728;50.624;6.014;2023-05-07T08:57:29;98273.88;;;26.68;44.86
23118;BME280;11728;50.624;6.014;2023-05-07T09:02:50;98280.97;;;26.08;45.32
23118;BME280;11728;50.624;6.014;2023-05-07T09:08:14;98279.56;;;25.40;46.01
23118;BME280;11728;50.624;6.014;2023-05-07T09:13:35;98290.88;;;25.01;46.21
23118;BME280;11728;50.624;6.014;2023-05-07T09:18:58;98282.50;;;24.83;46.78
23118;BME280;11728;50.624;6.014;2023-05-07T09:24:19;98288.16;;;24.69;46.71
23118;BME280;11728;50.624;6.014;2023-05-07T09:29:40;98294.56;;;24.79;47.14
23118;BME280;11728;50.624;6.014;2023-05-07T09:35:01;98302.50;;;24.58;47.64
23118;BME280;11728;50.624;6.014;2023-05-07T09:40:25;98298.44;;;24.53;48.82
23118;BME280;11728;50.624;6.014;2023-05-07T09:45:47;98303.06;;;24.40;49.68
23118;BME280;11728;50.624;6.014;2023-05-07T09:51:21;98305.13;;;24.25;49.87
23118;BME280;11728;50.624;6.014;2023-05-07T09:56:44;98305.00;;;24.38;49.48
23118;BME280;11728;50.624;6.014;2023-05-07T10:02:05;98299.19;;;24.55;49.01
23118;BME280;11728;50.624;6.014;2023-05-07T10:07:27;98299.44;;;24.63;48.88
23118;BME280;11728;50.624;6.014;2023-05-07T10:12:48;98307.03;;;24.47;49.12
23118;BME280;11728;50.624;6.014;2023-05-07T10:18:11;98311.34;;;23.92;49.66
23118;BME280;11728;50.624;6.014;2023-05-07T10:23:33;98311.22;;;23.70;50.46
23118;BME280;11728;50.624;6.014;2023-05-07T10:29:01;98314.28;;;23.53;50.45
23118;BME280;11728;50.624;6.014;2023-05-07T10:34:28;98324.56;;;23.48;50.10
23118;BME280;11728;50.624;6.014;2023-05-07T10:39:52;98324.72;;;23.34;50.72
23118;BME280;11728;50.624;6.014;2023-05-07T10:45:14;98335.81;;;23.29;50.81
23118;BME280;11728;50.624;6.014;2023-05-07T10:50:43;98330.78;;;23.48;50.94
23118;BME280;11728;50.624;6.014;2023-05-07T11:01:57;98329.31;;;23.80;50.88
23118;BME280;11728;50.624;6.014;2023-05-07T11:07:26;98328.41;;;23.21;52.11
23118;BME280;11728;50.624;6.014;2023-05-07T11:12:51;98327.53;;;22.95;52.40
23118;BME280;11728;50.624;6.014;2023-05-07T11:18:16;98331.00;;;22.60;53.43
23118;BME280;11728;50.624;6.014;2023-05-07T11:28:59;98350.47;;;22.39;54.30
23118;BME280;11728;50.624;6.014;2023-05-07T11:34:22;98347.28;;;22.71;53.69
23118;BME280;11728;50.624;6.014;2023-05-07T11:39:43;98347.16;;;22.97;53.43
23118;BME280;11728;50.624;6.014;2023-05-07T11:45:06;98352.44;;;22.86;54.98
23118;BME280;11728;50.624;6.014;2023-05-07T11:50:27;98349.44;;;23.16;55.55
23118;BME280;11728;50.624;6.014;2023-05-07T11:55:52;98345.59;;;23.55;55.52
23118;BME280;11728;50.624;6.014;2023-05-07T12:01:13;98350.84;;;23.93;54.82
23118;BME280;11728;50.624;6.014;2023-05-07T12:06:36;98357.72;;;23.97;55.36
23118;BME280;11728;50.624;6.014;2023-05-07T12:12:03;98368.97;;;23.91;55.61
23118;BME280;11728;50.624;6.014;2023-05-07T12:17:24;98380.53;;;23.44;56.39
23118;BME280;11728;50.624;6.014;2023-05-07T12:22:45;98381.03;;;23.14;56.79
23118;BME280;11728;50.624;6.014;2023-05-07T12:28:07;98378.75;;;22.95;57.20
23118;BME280;11728;50.624;6.014;2023-05-07T12:33:28;98385.19;;;22.55;58.25
23118;BME280;11728;50.624;6.014;2023-05-07T12:38:49;98387.09;;;21.88;60.30
23118;BME280;11728;50.624;6.014;2023-05-07T12:44:10;98388.16;;;21.46;61.73
23118;BME280;11728;50.624;6.014;2023-05-07T12:49:31;98400.56;;;21.20;62.71
23118;BME280;11728;50.624;6.014;2023-05-07T12:54:51;98398.16;;;21.16;63.06
23118;BME280;11728;50.624;6.014;2023-05-07T13:00:13;98398.94;;;21.18;63.45
23118;BME280;11728;50.624;6.014;2023-05-07T13:05:34;98389.13;;;21.31;63.72
23118;BME280;11728;50.624;6.014;2023-05-07T13:10:56;98378.59;;;21.82;62.80
23118;BME280;11728;50.624;6.014;2023-05-07T13:16:17;98394.41;;;22.13;61.46
23118;BME280;11728;50.624;6.014;2023-05-07T13:21:38;98403.31;;;22.01;61.46
23118;BME280;11728;50.624;6.014;2023-05-07T13:26:58;98413.09;;;22.02;61.96
23118;BME280;11728;50.624;6.014;2023-05-07T13:32:19;98404.25;;;22.26;61.60
23118;BME280;11728;50.624;6.014;2023-05-07T13:37:40;98401.53;;;22.52;60.54
23118;BME280;11728;50.624;6.014;2023-05-07T13:43:01;98408.16;;;22.86;59.63
23118;BME280;11728;50.624;6.014;2023-05-07T13:48:24;98405.56;;;22.97;59.36
23118;BME280;11728;50.624;6.014;2023-05-07T13:53:45;98399.53;;;22.93;59.44
23118;BME280;11728;50.624;6.014;2023-05-07T13:59:05;98405.50;;;23.11;59.26
23118;BME280;11728;50.624;6.014;2023-05-07T14:04:26;98402.91;;;23.22;59.11
23118;BME280;11728;50.624;6.014;2023-05-07T14:09:47;98398.03;;;23.26;58.52
23118;BME280;11728;50.624;6.014;2023-05-07T14:15:08;98401.41;;;23.18;58.92
23118;BME280;11728;50.624;6.014;2023-05-07T14:20:29;98408.63;;;23.05;59.14
23118;BME280;11728;50.624;6.014;2023-05-07T14:25:54;98410.22;;;22.95;59.57
23118;BME280;11728;50.624;6.014;2023-05-07T14:31:15;98407.06;;;22.76;60.29
23118;BME280;11728;50.624;6.014;2023-05-07T14:36:36;98401.91;;;22.73;60.55
23118;BME280;11728;50.624;6.014;2023-05-07T14:41:57;98414.59;;;22.71;60.35
23118;BME280;11728;50.624;6.014;2023-05-07T14:47:17;98420.00;;;22.71;60.61
23118;BME280;11728;50.624;6.014;2023-05-07T14:52:38;98416.44;;;22.58;60.66
23118;BME280;11728;50.624;6.014;2023-05-07T14:57:59;98426.34;;;22.31;60.62
23118;BME280;11728;50.624;6.014;2023-05-07T15:03:20;98432.38;;;22.08;60.89
23118;BME280;11728;50.624;6.014;2023-05-07T15:08:42;98442.03;;;21.98;61.79
23118;BME280;11728;50.624;6.014;2023-05-07T15:14:02;98444.13;;;22.07;61.49
23118;BME280;11728;50.624;6.014;2023-05-07T15:19:23;98441.47;;;21.93;61.92
23118;BME280;11728;50.624;6.014;2023-05-07T15:24:49;98449.75;;;21.90;62.28
23118;BME280;11728;50.624;6.014;2023-05-07T15:30:10;98446.69;;;21.82;62.63
23118;BME280;11728;50.624;6.014;2023-05-07T15:35:31;98455.16;;;21.76;63.13
23118;BME280;11728;50.624;6.014;2023-05-07T15:40:52;98450.53;;;21.65;63.56
23118;BME280;11728;50.624;6.014;2023-05-07T15:46:17;98451.81;;;21.59;64.16
23118;BME280;11728;50.624;6.014;2023-05-07T15:51:38;98456.88;;;21.50;64.28
23118;BME280;11728;50.624;6.014;2023-05-07T15:56:59;98451.91;;;21.16;65.29
23118;BME280;11728;50.624;6.014;2023-05-07T16:02:21;98459.28;;;21.12;66.26
23118;BME280;11728;50.624;6.014;2023-05-07T16:07:42;98466.28;;;21.15;66.77
23118;BME280;11728;50.624;6.014;2023-05-07T16:13:03;98455.91;;;21.09;67.39
23118;BME280;11728;50.624;6.014;2023-05-07T16:18:24;98465.41;;;21.00;68.01
23118;BME280;11728;50.624;6.014;2023-05-07T16:23:45;98461.69;;;21.03;68.10
23118;BME280;11728;50.624;6.014;2023-05-07T16:29:06;98461.28;;;21.37;67.85
23118;BME280;11728;50.624;6.014;2023-05-07T16:34:27;98469.06;;;21.27;67.59
23118;BME280;11728;50.624;6.014;2023-05-07T16:39:47;98464.53;;;21.14;67.66
23118;BME280;11728;50.624;6.014;2023-05-07T16:45:09;98480.88;;;21.11;68.40
23118;BME280;11728;50.624;6.014;2023-05-07T16:50:30;98483.88;;;20.91;68.43
23118;BME280;11728;50.624;6.014;2023-05-07T16:55:51;98486.47;;;20.63;69.58
23118;BME280;11728;50.624;6.014;2023-05-07T17:01:15;98494.28;;;20.38;70.19
23118;BME280;11728;50.624;6.014;2023-05-07T17:06:38;98495.69;;;20.14;71.23
23118;BME280;11728;50.624;6.014;2023-05-07T17:11:58;98486.63;;;20.02;71.99
23118;BME280;11728;50.624;6.014;2023-05-07T17:17:19;98482.69;;;19.92;72.76
23118;BME280;11728;50.624;6.014;2023-05-07T17:22:40;98484.22;;;19.80;73.84
23118;BME280;11728;50.624;6.014;2023-05-07T17:28:01;98493.56;;;19.73;74.37
23118;BME280;11728;50.624;6.014;2023-05-07T17:33:22;98500.31;;;19.65;74.93
23118;BME280;11728;50.624;6.014;2023-05-07T17:38:43;98506.19;;;19.56;75.47
23118;BME280;11728;50.624;6.014;2023-05-07T17:44:04;98502.34;;;19.44;75.94
23118;BME280;11728;50.624;6.014;2023-05-07T17:49:24;98510.63;;;19.40;76.27
23118;BME280;11728;50.624;6.014;2023-05-07T17:54:45;98515.38;;;19.35;76.90
23118;BME280;11728;50.624;6.014;2023-05-07T18:00:06;98518.47;;;19.28;77.21
23118;BME280;11728;50.624;6.014;2023-05-07T18:05:28;98521.22;;;19.26;77.68
23118;BME280;11728;50.624;6.014;2023-05-07T18:10:49;98522.16;;;19.25;77.92
23118;BME280;11728;50.624;6.014;2023-05-07T18:16:10;98525.94;;;19.21;78.08
23118;BME280;11728;50.624;6.014;2023-05-07T18:21:31;98531.63;;;19.15;78.87
23118;BME280;11728;50.624;6.014;2023-05-07T18:26:52;98532.81;;;19.10;79.73
23118;BME280;11728;50.624;6.014;2023-05-07T18:32:12;98543.09;;;19.00;79.83
23118;BME280;11728;50.624;6.014;2023-05-07T18:37:33;98546.44;;;18.88;81.17
23118;BME280;11728;50.624;6.014;2023-05-07T18:42:54;98553.91;;;18.82;81.72
23118;BME280;11728;50.624;6.014;2023-05-07T18:48:15;98563.03;;;18.78;82.06
23118;BME280;11728;50.624;6.014;2023-05-07T18:53:37;98564.06;;;18.75;82.55
23118;BME280;11728;50.624;6.014;2023-05-07T18:58:58;98580.28;;;18.89;81.60
23118;BME280;11728;50.624;6.014;2023-05-07T19:04:19;98570.97;;;18.79;82.39
23118;BME280;11728;50.624;6.014;2023-05-07T19:09:40;98581.28;;;18.70;83.01
23118;BME280;11728;50.624;6.014;2023-05-07T19:15:01;98584.34;;;18.62;83.45
23118;BME280;11728;50.624;6.014;2023-05-07T19:20:21;98592.03;;;18.52;84.53
23118;BME280;11728;50.624;6.014;2023-05-07T19:25:42;98593.50;;;18.40;85.09
23118;BME280;11728;50.624;6.014;2023-05-07T19:31:03;98597.84;;;18.43;85.06
23118;BME280;11728;50.624;6.014;2023-05-07T19:36:24;98604.31;;;18.20;86.37
23118;BME280;11728;50.624;6.014;2023-05-07T19:41:45;98609.69;;;18.19;86.33
23118;BME280;11728;50.624;6.014;2023-05-07T19:47:06;98607.59;;;18.07;87.60
23118;BME280;11728;50.624;6.014;2023-05-07T19:52:28;98613.59;;;18.12;87.78
23118;BME280;11728;50.624;6.014;2023-05-07T19:57:49;98609.84;;;18.16;86.96
23118;BME280;11728;50.624;6.014;2023-05-07T20:03:10;98620.97;;;18.07;87.51
23118;BME280;11728;50.624;6.014;2023-05-07T20:08:37;98624.47;;;17.89;88.91
23118;BME280;11728;50.624;6.014;2023-05-07T20:13:58;98636.91;;;17.90;89.28
23118;BME280;11728;50.624;6.014;2023-05-07T20:19:19;98641.97;;;17.96;89.14
23118;BME280;11728;50.624;6.014;2023-05-07T20:24:40;98640.19;;;17.96;89.40
23118;BME280;11728;50.624;6.014;2023-05-07T20:30:00;98647.31;;;17.96;90.28
23118;BME280;11728;50.624;6.014;2023-05-07T20:35:21;98652.00;;;17.91;90.45
23118;BME280;11728;50.624;6.014;2023-05-07T20:40:42;98659.28;;;17.69;91.94
23118;BME280;11728;50.624;6.014;2023-05-07T20:46:03;98652.84;;;17.55;93.58
23118;BME280;11728;50.624;6.014;2023-05-07T20:51:25;98662.16;;;17.65;92.73
23118;BME280;11728;50.624;6.014;2023-05-07T20:56:46;98662.63;;;17.54;93.43
23118;BME280;11728;50.624;6.014;2023-05-07T21:02:07;98667.56;;;17.63;93.64
23118;BME280;11728;50.624;6.014;2023-05-07T21:07:29;98663.97;;;17.64;93.75
23118;BME280;11728;50.624;6.014;2023-05-07T21:12:49;98671.16;;;17.62;93.82
23118;BME280;11728;50.624;6.014;2023-05-07T21:18:10;98672.25;;;17.58;94.14
23118;BME280;11728;50.624;6.014;2023-05-07T21:23:31;98668.97;;;17.52;94.10
23118;BME280;11728;50.624;6.014;2023-05-07T21:28:52;98666.63;;;17.44;94.66
23118;BME280;11728;50.624;6.014;2023-05-07T21:34:13;98676.66;;;17.39;94.52
23118;BME280;11728;50.624;6.014;2023-05-07T21:39:34;98673.25;;;17.36;94.70
23118;BME280;11728;50.624;6.014;2023-05-07T21:44:55;98669.75;;;17.34;94.90
23118;BME280;11728;50.624;6.014;2023-05-07T21:50:16;98673.69;;;17.25;96.07
23118;BME280;11728;50.624;6.014;2023-05-07T21:55:36;98673.25;;;17.14;97.32
23118;BME280;11728;50.624;6.014;2023-05-07T22:00:58;98670.66;;;17.13;97.88
23118;BME280;11728;50.624;6.014;2023-05-07T22:06:19;98671.41;;;17.16;97.70
23118;BME280;11728;50.624;6.014;2023-05-07T22:11:41;98670.38;;;17.19;97.64
23118;BME280;11728;50.624;6.014;2023-05-07T22:17:02;98666.88;;;17.18;98.07
23118;BME280;11728;50.624;6.014;2023-05-07T22:22:23;98676.00;;;17.13;98.14
23118;BME280;11728;50.624;6.014;2023-05-07T22:27:44;98670.81;;;17.10;98.32
23118;BME280;11728;50.624;6.014;2023-05-07T22:33:05;98667.53;;;17.03;98.77
23118;BME280;11728;50.624;6.014;2023-05-07T22:38:25;98664.22;;;16.97;99.22
23118;BME280;11728;50.624;6.014;2023-05-07T22:43:46;98663.50;;;16.93;99.41
23118;BME280;11728;50.624;6.014;2023-05-07T22:49:07;98671.56;;;16.92;99.65
23118;BME280;11728;50.624;6.014;2023-05-07T22:54:29;98676.28;;;16.86;100.00
23118;BME280;11728;50.624;6.014;2023-05-07T22:59:56;98680.28;;;16.76;100.00
23118;BME280;11728;50.624;6.014;2023-05-07T23:05:17;98683.94;;;16.73;100.00
23118;BME280;11728;50.624;6.014;2023-05-07T23:10:38;98676.69;;;16.77;100.00
23118;BME280;11728;50.624;6.014;2023-05-07T23:15:58;98684.63;;;16.78;100.00
23118;BME280;11728;50.624;6.014;2023-05-07T23:21:20;98676.53;;;16.80;100.00
23118;BME280;11728;50.624;6.014;2023-05-07T23:26:40;98687.13;;;16.81;100.00
23118;BME280;11728;50.624;6.014;2023-05-07T23:32:01;98681.88;;;16.80;100.00
23118;BME280;11728;50.624;6.014;2023-05-07T23:37:22;98682.19;;;16.72;100.00
23118;BME280;11728;50.624;6.014;2023-05-07T23:42:43;98689.31;;;16.72;100.00
23118;BME280;11728;50.624;6.014;2023-05-07T23:48:04;98687.84;;;16.65;100.00
23118;BME280;11728;50.624;6.014;2023-05-07T23:53:25;98689.47;;;16.69;100.00
23118;BME280;11728;50.624;6.014;2023-05-07T23:58:46;98684.88;;;16.72;100.00
